| Station | Date | Time | Temp (°F) | RH (%) | Dew Pt (°F) | Wind Spd (mph) | Wind Dir (°) | Wind Gust (mph) | Latest Rain (In) | Daily Rain (In) | Daily Max Temp (°F) | Daily Min Temp (°F) |
|---|---|---|---|---|---|---|---|---|---|---|---|---|
| Dollarhide 18A Remote | 5/8/26 | 1845 | 78.1 1.0 | 58 2 | 62.3 2.2 | - | - | - | - | - | 82.1 0.5 | 43.4 1.3 |
| Dollarhide 1AS Remote | 5/8/26 | 1845 | 79.8 2.5 | 55 1 | 62.1 2.0 | 3.4 2.5 | S | 183 | 7.8 4.7 | - | - | 83.8 0.5 | 46.1 1.0 |
| Angwin | 5/8/26 | 1845 | 70.0 2.8 | 61 6 | 55.9 0.2 | 2.0 0.2 | SE | 144 | 4.7 0.5 | 0.00 | 0.00 | 75.1 2.2 | 56.1 1.2 |
| Lower Angwin (Pioneer) | 5/8/26 | 1845 | 72.2 3.1 | - | - | 3.6 1.6 | WSW | 245 | 8.1 3.2 | - | - | 75.9 1.3 | 42.8 2.7 |
| Lower Chiles Valley (Brown) | 5/8/26 | 1845 | 76.2 1.2 | 55 3 | 58.8 0.5 | 3.5 1.0 | NNE | 22 | 8.3 1.9 | 0.00 | 0.01 | 79.1 0.2 | 50.0 0.5 |
| Deer Park | 5/8/26 | 1845 | 73.8 0.8 | 58 1 | 58.1 1.0 | 4.6 2.5 | SSE | 154 | 7.5 5.1 | 0.00 | 0.00 | 79.3 0.5 | 50.3 0.6 |
| Moss Creek Vineyard/Reservior | 5/8/26 | 1845 | 76.2 1.2 | 54 2 | 58.2 0.0 | - | - | - | 0.00 | 0.00 | 84.9 0.9 | 50.6 0.4 |
| Montesol | 5/8/26 | 1845 | 73.0 3.3 | - | - | - | - | - | 0.00 | 0.00 | 77.3 2.0 | 43.5 4.3 |
| Dollarhide Base | 5/8/26 | 1200 | 77.6 0.6 | 55 0 | 60.4 0.6 | 2.2 3.3 | S | 176 | 5.6 5.0 | 0.00 | 0.00 | 78.3 0.6 | 49.3 0.1 |
| Pope Valley (Weeks Lake) | 5/8/26 | 1845 | 79.4 1.5 | 48 2 | 58.0 0.3 | 3.3 0.0 | SW | 216 | 7.0 0.9 | 0.00 | 0.00 | 82.7 0.6 | 46.0 0.1 |
| Max | 79.8 | 61 | 62.3 | 4.6 | - | 8.3 | 0.00 | 0.01 | 84.9 | 56.1 | ||
| Avg | 75.4 | 55 | 59.1 | 3.4 | - | 7.2 | 0.00 | - | - | - | ||
| Min | 70.0 | 48 | 55.9 | 2.0 | - | 4.7 | 0.00 | 0.00 | 75.1 | 42.8 |
| Station | Date | Time | Temp (°F) | RH (%) | Dew Pt (°F) | Wind Spd (mph) | Wind Dir (°) | Wind Gust (mph) | Latest Rain (In) | Daily Rain (In) | Daily Max Temp (°F) | Daily Min Temp (°F) |
|---|---|---|---|---|---|---|---|---|---|---|---|---|
| Calistoga-North | 5/8/26 | 1845 | 79.2 6.6 | 51 12 | 59.3 0.3 | - | - | - | 0.00 | 0.00 | 86.4 4.4 | 52.0 0.3 |
| Stags Leap Dist (Chimney Rock) | 5/8/26 | 1845 | 72.1 3.3 | 60 7 | 57.6 0.2 | 5.7 0.5 | SE | 137 | 10.4 1.8 | 0.00 | 0.00 | 75.4 1.8 | 52.8 0.4 |
| Diamond Mtn (McEachran) | 5/8/26 | 1845 | 75.8 4.7 | 56 2 | 59.3 3.2 | - | - | - | - | - | 81.8 3.9 | 50.7 0.3 |
| Diamond Mtn (Schramsberg) | 5/8/26 | 1845 | 75.7 4.6 | 54 6 | 57.9 1.3 | - | - | - | 0.00 | 0.00 | 81.3 2.8 | 49.3 0.0 |
| Stags Leap Dist (Silverado Vineyards) | 5/8/26 | 1845 | 71.1 2.2 | 56 6 | 54.6 0.6 | 5.2 1.6 | SSE | 157 | 13.1 0.0 | 0.00 | 0.00 | 75.3 0.9 | 52.1 0.2 |
| Oak Knoll-East (Ranch 53) | 5/8/26 | 1845 | 72.2 3.9 | 50 12 | 52.6 2.1 | 4.1 0.6 | SSE | 155 | 9.1 0.4 | 0.00 | 0.00 | 76.1 1.4 | 52.6 0.1 |
| Rutherford-North (Mee Ln) | 5/8/26 | 1845 | 73.9 1.2 | 55 5 | 56.8 1.4 | 6.5 0.7 | SE | 146 | 11.8 0.4 | 0.00 | 0.00 | 78.6 0.7 | 49.4 0.9 |
| Frisinger Napa-NW | 5/8/26 | 1845 | 71.9 1.4 | 57 7 | 55.8 1.8 | 4.5 0.6 | SSE | 153 | 8.7 0.6 | 0.00 | 0.00 | 77.5 0.1 | 52.8 0.2 |
| Napa-North (Ranch 29) | 5/8/26 | 1845 | 72.3 4.7 | 55 7 | 55.4 1.0 | 1.7 1.0 | SSE | 156 | 6.2 1.2 | 0.00 | 0.00 | 74.0 1.8 | 51.8 0.1 |
| St. Helena (NVV Office) | 5/8/26 | 1845 | 76.0 1.4 | - | - | 2.8 1.3 | ESE | 121 | 9.3 3.9 | 0.00 | 0.00 | 82.5 0.6 | 53.1 0.1 |
| Crossroads Ranch | 5/8/26 | 1845 | 72.7 1.6 | 56 5 | 56.2 1.0 | 9.1 0.7 | SE | 146 | 14.2 1.6 | 0.00 | 0.00 | 76.5 1.6 | 53.0 0.1 |
| Oakville | 5/8/26 | 1845 | 72.9 1.8 | 54 6 | 55.3 1.2 | 7.6 0.9 | SE | 137 | 14.1 1.0 | 0.00 | 0.00 | 76.3 1.8 | 52.6 0.1 |
| OV561-East | 5/8/26 | 1845 | 75.3 1.4 | - | - | - | - | - | - | - | 79.2 2.7 | 53.4 0.2 |
| OV518-West | 5/8/26 | 1845 | 73.0 2.0 | - | - | - | - | - | - | - | 77.0 0.5 | 53.0 0.2 |
| Napa-NW (Ranch 54) | 5/8/26 | 1845 | 75.5 0.9 | 49 4 | 54.9 1.4 | 0.7 0.5 | SE | 133 | 2.7 0.4 | 0.00 | 0.00 | 78.9 0.7 | 52.8 0.1 |
| Calistoga (Ranch 78) | 5/8/26 | 1845 | 79.5 4.9 | 43 10 | 54.9 1.4 | 2.7 1.4 | W | 260 | 6.7 1.3 | 0.00 | 0.00 | 83.5 3.9 | 52.2 0.5 |
| Yountville-SE (Ranch 85) | 5/8/26 | 1845 | 72.8 3.8 | 56 7 | 56.4 0.3 | 4.1 1.2 | SSE | 165 | 8.1 2.3 | 0.00 | 0.00 | 75.0 2.2 | 52.8 0.1 |
| Yountville-South (Ranch 87) | 5/8/26 | 1845 | 73.2 3.9 | 52 11 | 54.7 1.6 | 3.7 1.4 | SSE | 149 | 8.5 0.2 | 0.00 | 0.00 | 76.5 2.4 | 52.7 0.1 |
| Rutherford Hill Estate | 5/8/26 | 1845 | 74.8 0.2 | 54 1 | 57.4 0.9 | 2.3 0.4 | S | 184 | 9.9 2.2 | 0.00 | 0.00 | 78.7 1.2 | 51.4 0.4 |
| Rutherford (STS) | 5/8/26 | 1845 | 73.7 1.9 | 61 7 | 59.4 1.1 | 4.5 1.5 | SE | 130 | 9.1 2.5 | 0.00 | 0.00 | 79.6 0.5 | 52.8 0.1 |
| Borreo (Soda Canyon) | 5/8/26 | 1845 | 70.1 3.8 | 59 6 | 55.1 0.7 | 2.2 1.2 | SSW | 194 | 7.7 0.4 | 0.00 | 0.00 | 72.6 2.0 | 50.3 0.7 |
| Oakville-NE (Ranch 88) | 5/8/26 | 1845 | 74.0 1.1 | 52 4 | 55.3 1.1 | 5.5 0.3 | S | 183 | 11.8 0.0 | 0.00 | 0.00 | 78.4 0.9 | 52.9 0.2 |
| Soda Canyon | 5/8/26 | 1845 | 71.1 3.8 | 66 5 | 59.1 1.7 | 4.4 0.8 | S | 171 | 8.6 0.5 | 0.00 | 0.00 | 73.6 2.1 | 52.3 5.0 |
| Silver Oak OV | 5/8/26 | 1845 | 72.8 1.7 | 56 6 | 56.4 1.2 | 8.1 0.1 | SE | 132 | 13.4 0.7 | 0.00 | 0.00 | 76.1 1.6 | 52.9 0.1 |
| Tiara Fria (East St. Helena) | 5/8/26 | 1845 | 75.1 0.9 | 53 4 | 56.9 1.4 | 4.2 0.6 | SE | 141 | 8.9 0.0 | 0.00 | 0.00 | 79.1 2.4 | 53.0 0.3 |
| To Kalon Remote (TKKE) | 5/8/26 | 1845 | 74.9 1.1 | - | - | - | - | - | - | - | 79.3 1.0 | 53.0 0.2 |
| To Kalon | 5/8/26 | 1845 | 73.3 1.7 | 55 7 | 56.2 1.6 | 7.0 0.1 | SSE | 151 | 11.7 1.4 | 0.00 | 0.00 | 77.4 1.3 | 52.6 0.5 |
| To Kalon Remote (TKN5) | 5/8/26 | 1845 | 75.0 2.0 | - | - | - | - | - | - | - | 80.1 0.9 | 53.1 0.3 |
| St. Helena-North | 5/8/26 | 1845 | 75.1 1.0 | 54 6 | 57.4 2.4 | 6.0 2.8 | SE | 139 | 9.2 1.5 | 0.00 | 0.00 | 80.5 2.2 | 52.8 0.2 |
| Twomey Calistoga | 5/8/26 | 1845 | 80.2 6.4 | 46 10 | 57.3 0.5 | 2.8 1.9 | WNW | 300 | 5.3 5.3 | 0.00 | 0.00 | 82.8 3.6 | 50.9 1.2 |
| Wappo Hill Floor | 5/8/26 | 1845 | 72.6 3.9 | 55 8 | 55.4 0.1 | 5.7 0.8 | SE | 144 | 10.0 1.3 | 0.00 | 0.00 | 76.0 2.0 | 51.4 0.1 |
| Yountville (Ranch 67) | 5/8/26 | 1845 | 71.1 2.7 | 55 6 | 54.3 0.3 | 6.6 0.6 | SSE | 155 | 12.4 1.2 | 0.00 | 0.00 | 74.9 1.5 | 52.1 0.2 |
| Max | 80.2 | 66 | 59.4 | 9.1 | - | 14.2 | 0.00 | 0.00 | 86.4 | 53.4 | ||
| Avg | 74.0 | 54 | 56.4 | 4.7 | - | 9.6 | 0.00 | - | - | - | ||
| Min | 70.1 | 43 | 52.6 | 0.7 | - | 2.7 | 0.00 | 0.00 | 72.6 | 49.3 |
| Station | Date | Time | Temp (°F) | RH (%) | Dew Pt (°F) | Wind Spd (mph) | Wind Dir (°) | Wind Gust (mph) | Latest Rain (In) | Daily Rain (In) | Daily Max Temp (°F) | Daily Min Temp (°F) |
|---|---|---|---|---|---|---|---|---|---|---|---|---|
| Carneros (Milton Rd) | 5/8/26 | 1845 | 68.7 5.1 | 58 11 | 53.4 0.1 | - | - | - | 0.00 | 0.00 | 74.7 0.3 | 51.5 0.1 |
| Carneros Lower (Ranch 81) | 5/8/26 | 1845 | 67.2 6.0 | 61 14 | 53.2 0.1 | 2.1 1.5 | WNW | 297 | 7.2 2.7 | 0.00 | 0.00 | 77.7 0.3 | 51.3 0.2 |
| Carneros Upper (Ranch 81) | 5/8/26 | 1845 | 67.4 5.7 | 58 14 | 51.9 0.5 | 7.6 5.3 | W | 272 | 12.5 8.5 | - | - | 73.4 0.2 | 49.9 1.0 |
| Carneros (Mitsuko) | 5/8/26 | 1845 | 69.8 7.8 | - | - | - | - | - | - | - | 74.4 0.5 | 51.0 0.9 |
| Mount George (Napa East) | 5/8/26 | 1845 | 71.4 4.8 | 58 7 | 55.9 1.1 | 1.8 1.4 | S | 177 | 7.4 0.1 | 0.00 | 0.00 | 74.3 1.1 | 53.7 1.6 |
| Napa-East (Palmaz 300') | 5/8/26 | 1845 | 71.3 4.0 | 55 7 | 54.5 0.6 | 3.7 0.1 | SSW | 213 | 7.2 3.4 | 0.00 | 0.00 | 74.8 1.1 | 51.2 0.2 |
| Napa-East (Palmaz 1200') | 5/8/26 | 1845 | 67.6 3.6 | 64 6 | 55.1 0.9 | 2.7 1.2 | WNW | 299 | 7.6 0.2 | - | - | 69.2 1.7 | 48.2 0.3 |
| Napa-East (Palmaz 1400') | 5/8/26 | 1845 | 65.4 2.5 | 70 4 | 55.2 0.9 | 4.7 0.8 | SW | 223 | 9.1 1.5 | 0.00 | 0.00 | 69.7 1.2 | 47.7 0.1 |
| Dealy Lane (Ranch 80) | 5/8/26 | 1845 | 69.7 5.9 | 53 15 | 51.7 1.3 | 2.7 0.8 | WSW | 256 | 6.7 4.9 | 0.00 | 0.00 | 74.5 1.5 | 50.8 0.9 |
| Suscol Mtn (Ranch 93) | 5/8/26 | 1845 | 65.3 2.0 | 68 1 | 54.4 1.5 | 4.2 2.8 | WSW | 240 | 8.6 1.8 | 0.00 | 0.01 | 72.6 1.6 | 47.8 1.1 |
| Carneros (Saintsbury) | 5/8/26 | 1845 | 70.1 7.3 | 54 16 | 52.6 0.2 | 6.4 2.0 | SSW | 193 | 11.2 2.9 | 0.00 | 0.00 | 75.0 1.2 | 48.3 1.0 |
| Sugarloaf West | 5/8/26 | 1845 | 67.1 3.4 | 69 3 | 56.7 2.1 | 7.0 1.5 | SSE | 160 | 12.8 2.2 | 0.00 | 0.00 | 71.1 2.3 | 51.3 0.9 |
| Suscol Upper (Ranch 92) | 5/8/26 | 1845 | 66.4 2.1 | 66 2 | 55.0 1.1 | 2.1 0.3 | SSW | 211 | 8.7 1.3 | 0.00 | 0.00 | 70.8 0.5 | 48.3 1.2 |
| Stanly (Ranch 45) | 5/8/26 | 1845 | 70.0 4.3 | 60 4 | 55.3 2.1 | 8.6 0.3 | SSW | 203 | 13.3 0.8 | 0.00 | 0.00 | 72.8 2.4 | 49.4 1.0 |
| Suscol Lower (Ranch 35) | 5/8/26 | 1845 | 66.7 2.6 | 66 0 | 54.9 2.3 | 7.5 1.6 | S | 178 | 14.0 4.0 | 0.00 | 0.00 | 72.3 2.3 | 50.5 1.1 |
| Napa-South (Toyon Farms) | 5/8/26 | 1845 | 70.4 6.9 | 61 15 | 56.2 0.7 | 5.0 1.7 | SW | 216 | 9.8 0.7 | 0.00 | 0.00 | 74.1 0.6 | 50.8 0.4 |
| Toyon Remote 1 | 5/8/26 | 1845 | 70.1 6.8 | - | - | - | - | - | - | - | 77.1 1.0 | 51.2 5.4 |
| Toyon Remote 2 | 5/8/26 | 1845 | 70.8 5.9 | - | - | - | - | - | - | - | 75.8 0.2 | 51.4 1.4 |
| Toyon Remote 3 | 5/8/26 | 1845 | 72.7 7.6 | - | - | - | - | - | - | - | 77.9 0.2 | 51.5 1.8 |
| Napa-West Lower (Truchard) | 5/8/26 | 1845 | 71.1 4.8 | 53 11 | 53.1 0.9 | - | - | - | - | - | 76.4 2.4 | 50.1 3.6 |
| Napa-West Upper (Truchard) | 5/8/26 | 1845 | 69.6 4.2 | 56 11 | 53.1 1.2 | 6.3 1.6 | SSW | 206 | 9.9 1.1 | 0.00 | 0.00 | 74.3 2.4 | 49.1 0.6 |
| Mt. Veeder | 5/8/26 | 1845 | 66.6 1.0 | 71 1 | 57.0 0.7 | 0.5 0.3 | SSW | 193 | 2.0 0.3 | 0.00 | 0.00 | 74.9 0.7 | 46.3 1.0 |
| Wooden Valley | 5/8/26 | 1845 | 70.5 1.4 | 58 3 | 55.2 0.0 | 4.4 0.1 | WNW | 288 | 9.4 0.8 | 0.00 | 0.00 | 74.1 1.3 | 49.1 0.6 |
| Max | 72.7 | 71 | 57.0 | 8.6 | - | 14.0 | 0.00 | 0.01 | 77.9 | 53.7 | ||
| Avg | 69.0 | 61 | 54.5 | 4.6 | - | 9.2 | 0.00 | - | - | - | ||
| Min | 65.3 | 53 | 51.7 | 0.5 | - | 2.0 | 0.00 | 0.00 | 69.2 | 46.3 |